createdAt,value
2023-05-09T00:01:14.045Z,95544.41
2023-05-09T00:03:43.884Z,95541.03
2023-05-09T00:06:13.477Z,95532.75
2023-05-09T00:08:41.602Z,95537.91
2023-05-09T00:11:09.559Z,95538.13
2023-05-09T00:13:37.433Z,95533.16
2023-05-09T00:16:06.006Z,95534.72
2023-05-09T00:18:34.088Z,95527.78
2023-05-09T00:21:04.080Z,95527.75
2023-05-09T00:23:32.068Z,95524.97
2023-05-09T00:26:00.141Z,95521.97
2023-05-09T00:28:28.278Z,95515.81
2023-05-09T00:30:56.801Z,95518.78
2023-05-09T00:33:26.838Z,95528.09
2023-05-09T00:35:54.783Z,95516.03
2023-05-09T00:38:24.538Z,95522.91
2023-05-09T00:40:52.348Z,95521.09
2023-05-09T00:43:20.107Z,95519.97
2023-05-09T00:45:48.624Z,95522.72
2023-05-09T00:48:17.213Z,95515.63
2023-05-09T00:50:45.148Z,95522.69
2023-05-09T00:53:12.943Z,95513.78
2023-05-09T00:55:42.214Z,95509.56
2023-05-09T00:58:10.065Z,95498.44
2023-05-09T01:00:38.096Z,95505.16
2023-05-09T01:03:06.468Z,95516.28
2023-05-09T01:05:45.205Z,95506.16
2023-05-09T01:08:22.799Z,95508.91
2023-05-09T01:10:59.615Z,95506.19
2023-05-09T01:13:33.161Z,95495.16
2023-05-09T01:16:06.379Z,95488.63
2023-05-09T01:18:41.355Z,95496.09
2023-05-09T01:21:12.863Z,95494.56
2023-05-09T01:24:10.400Z,95489.75
2023-05-09T01:26:46.563Z,95495.88
2023-05-09T01:29:36.161Z,95494.28
2023-05-09T01:32:07.113Z,95490.88
2023-05-09T01:34:36.083Z,95489.66
2023-05-09T01:37:06.682Z,95484.28
2023-05-09T01:39:37.142Z,95477.34
2023-05-09T01:42:08.300Z,95486.91
2023-05-09T01:44:40.976Z,95479.81
2023-05-09T01:47:09.775Z,95474.94
2023-05-09T01:49:39.702Z,95474.25
2023-05-09T01:52:10.001Z,95485.00
2023-05-09T01:54:40.139Z,95478.81
2023-05-09T01:57:09.152Z,95482.84
2023-05-09T01:59:42.127Z,95473.84
2023-05-09T02:02:10.495Z,95473.28
2023-05-09T02:04:38.946Z,95473.47
2023-05-09T02:07:08.060Z,95463.59
2023-05-09T02:09:35.941Z,95456.25
2023-05-09T02:12:04.544Z,95459.75
2023-05-09T02:14:32.906Z,95462.09
2023-05-09T02:17:06.300Z,95470.19
2023-05-09T02:19:35.306Z,95468.81
2023-05-09T02:22:04.815Z,95452.00
2023-05-09T02:24:34.153Z,95460.97
2023-05-09T02:27:03.671Z,95459.97
2023-05-09T02:29:39.865Z,95449.25
2023-05-09T02:32:11.304Z,95456.94
2023-05-09T02:34:40.404Z,95445.41
2023-05-09T02:37:08.848Z,95449.13
2023-05-09T02:39:37.056Z,95446.34
2023-05-09T02:42:07.926Z,95448.28
2023-05-09T02:44:36.229Z,95435.91
2023-05-09T02:47:05.062Z,95448.72
2023-05-09T02:49:34.369Z,95446.69
2023-05-09T02:52:04.121Z,95434.53
2023-05-09T02:54:31.895Z,95440.53
2023-05-09T02:57:00.142Z,95443.31
2023-05-09T02:59:28.235Z,95434.47
2023-05-09T03:01:57.265Z,95429.94
2023-05-09T03:04:25.829Z,95435.72
2023-05-09T03:06:55.153Z,95417.34
2023-05-09T03:09:23.462Z,95436.38
2023-05-09T03:11:51.466Z,95432.59
2023-05-09T03:14:19.294Z,95434.41
2023-05-09T03:16:47.065Z,95431.28
2023-05-09T03:19:23.113Z,95429.09
2023-05-09T03:21:50.972Z,95434.84
2023-05-09T03:24:20.294Z,95418.03
2023-05-09T03:26:48.690Z,95432.66
2023-05-09T03:29:16.597Z,95415.69
2023-05-09T03:31:44.447Z,95427.78
2023-05-09T03:34:15.235Z,95428.81
2023-05-09T03:36:44.490Z,95416.28
2023-05-09T03:39:14.150Z,95424.97
2023-05-09T03:41:46.090Z,95422.94
2023-05-09T03:44:14.364Z,95411.97
2023-05-09T03:46:42.195Z,95418.75
2023-05-09T03:49:10.562Z,95421.41
2023-05-09T03:51:39.949Z,95408.09
2023-05-09T03:54:13.412Z,95422.03
2023-05-09T03:56:41.651Z,95420.53
2023-05-09T03:59:11.604Z,95424.22
2023-05-09T04:01:40.935Z,95427.75
2023-05-09T04:04:09.536Z,95421.75
2023-05-09T04:06:37.906Z,95438.44
2023-05-09T04:09:07.926Z,95425.56
2023-05-09T04:11:35.704Z,95431.34
2023-05-09T04:14:07.108Z,95436.94
2023-05-09T04:16:38.299Z,95439.56
2023-05-09T04:19:07.165Z,95443.22
2023-05-09T04:21:36.555Z,95437.06
2023-05-09T04:24:05.818Z,95433.16
2023-05-09T04:26:39.321Z,95434.41
2023-05-09T04:29:10.459Z,95436.84
2023-05-09T04:31:39.758Z,95437.78
2023-05-09T04:34:09.355Z,95446.06
2023-05-09T04:36:39.285Z,95436.06
2023-05-09T04:39:08.738Z,95437.94
2023-05-09T04:41:37.730Z,95441.75
2023-05-09T04:44:06.233Z,95417.53
2023-05-09T04:46:34.208Z,95419.47
2023-05-09T04:49:03.731Z,95426.19
2023-05-09T04:51:31.955Z,95420.53
2023-05-09T04:54:00.197Z,95415.88
2023-05-09T04:56:33.064Z,95418.84
2023-05-09T04:59:03.815Z,95401.84
2023-05-09T05:01:31.991Z,95417.50
2023-05-09T05:04:01.058Z,95412.81
2023-05-09T05:06:32.892Z,95420.91
2023-05-09T05:09:01.335Z,95428.78
2023-05-09T05:11:32.387Z,95418.16
2023-05-09T05:14:00.611Z,95419.13
2023-05-09T05:16:28.536Z,95425.84
2023-05-09T05:18:56.428Z,95421.53
2023-05-09T05:21:24.340Z,95406.34
2023-05-09T05:23:53.891Z,95410.16
2023-05-09T05:26:22.216Z,95409.84
2023-05-09T05:28:55.332Z,95407.59
2023-05-09T05:31:27.315Z,95405.59
2023-05-09T05:33:57.775Z,95402.03
2023-05-09T05:36:25.813Z,95406.59
2023-05-09T05:38:54.900Z,95406.97
2023-05-09T05:41:23.428Z,95405.19
2023-05-09T05:43:54.107Z,95410.06
2023-05-09T05:46:22.538Z,95406.09
2023-05-09T05:48:50.364Z,95404.16
2023-05-09T05:51:18.212Z,95404.03
2023-05-09T05:53:46.855Z,95398.69
2023-05-09T05:56:16.045Z,95396.16
2023-05-09T05:58:43.873Z,95401.84
2023-05-09T06:01:12.011Z,95394.38
2023-05-09T06:03:39.916Z,95394.72
2023-05-09T06:06:08.477Z,95389.78
2023-05-09T06:08:36.273Z,95384.00
2023-05-09T06:11:05.812Z,95379.28
2023-05-09T06:13:35.078Z,95385.69
2023-05-09T06:16:18.733Z,95381.75
2023-05-09T06:18:49.928Z,95387.16
2023-05-09T06:21:17.702Z,95386.88
2023-05-09T06:23:57.741Z,95385.19
2023-05-09T06:26:33.464Z,95382.38
2023-05-09T06:29:02.652Z,95387.09
2023-05-09T06:31:31.358Z,95386.34
2023-05-09T06:33:59.232Z,95383.72
2023-05-09T06:36:26.985Z,95387.56
2023-05-09T06:38:54.721Z,95380.84
2023-05-09T06:41:22.555Z,95367.59
2023-05-09T06:43:50.367Z,95363.56
2023-05-09T06:46:19.626Z,95363.91
2023-05-09T06:48:47.476Z,95351.84
2023-05-09T06:51:15.486Z,95348.91
2023-05-09T06:53:43.251Z,95357.66
2023-05-09T06:56:12.742Z,95364.34
2023-05-09T06:58:40.807Z,95347.56
2023-05-09T07:01:08.717Z,95363.66
2023-05-09T07:03:37.921Z,95364.00
2023-05-09T07:06:05.980Z,95354.72
2023-05-09T07:08:33.743Z,95350.72
2023-05-09T07:11:01.650Z,95344.53
2023-05-09T07:13:29.392Z,95352.56
2023-05-09T07:15:57.687Z,95348.66
2023-05-09T07:18:25.507Z,95338.19
2023-05-09T07:20:54.707Z,95345.59
2023-05-09T07:23:22.499Z,95339.84
2023-05-09T07:25:50.290Z,95328.06
2023-05-09T07:28:19.137Z,95337.81
2023-05-09T07:30:46.951Z,95332.16
2023-05-09T07:33:14.771Z,95334.06
2023-05-09T07:35:42.582Z,95331.53
2023-05-09T07:38:12.116Z,95328.13
2023-05-09T07:40:39.904Z,95326.69
2023-05-09T07:43:07.711Z,95319.50
2023-05-09T07:45:36.542Z,95313.06
2023-05-09T07:48:04.607Z,95322.38
2023-05-09T07:50:32.492Z,95314.78
2023-05-09T07:53:00.448Z,95308.06
2023-05-09T07:55:29.616Z,95316.75
2023-05-09T07:57:57.507Z,95318.28
2023-05-09T08:00:25.723Z,95302.63
2023-05-09T08:02:54.009Z,95300.97
2023-05-09T08:05:22.069Z,95299.56
2023-05-09T08:07:49.824Z,95293.44
2023-05-09T08:10:17.630Z,95284.13
2023-05-09T08:12:46.826Z,95296.44
2023-05-09T08:15:14.755Z,95288.91
2023-05-09T08:17:42.724Z,95286.34
2023-05-09T08:20:11.965Z,95276.66
2023-05-09T08:22:41.171Z,95288.44
2023-05-09T08:25:09.837Z,95279.78
2023-05-09T08:27:37.586Z,95276.16
2023-05-09T08:30:08.181Z,95272.22
2023-05-09T08:32:36.125Z,95274.91
2023-05-09T08:35:04.042Z,95268.00
2023-05-09T08:37:31.881Z,95264.06
2023-05-09T08:39:59.653Z,95257.59
2023-05-09T08:42:28.540Z,95256.00
2023-05-09T08:44:56.445Z,95254.63
2023-05-09T08:47:26.370Z,95248.06
2023-05-09T08:49:54.656Z,95244.19
2023-05-09T08:52:22.922Z,95236.41
2023-05-09T08:54:51.484Z,95232.69
2023-05-09T08:57:19.452Z,95233.03
2023-05-09T08:59:47.331Z,95233.16
2023-05-09T09:02:15.926Z,95227.16
2023-05-09T09:04:46.077Z,95230.00
2023-05-09T09:07:16.218Z,95226.06
2023-05-09T09:09:46.985Z,95210.63
2023-05-09T09:12:16.388Z,95217.22
2023-05-09T09:14:48.967Z,95223.56
2023-05-09T09:17:20.636Z,95229.38
2023-05-09T09:19:51.220Z,95218.81
2023-05-09T09:22:20.812Z,95218.03
2023-05-09T09:24:48.773Z,95201.06
2023-05-09T09:27:16.861Z,95209.31
2023-05-09T09:29:44.622Z,95198.88
2023-05-09T09:32:12.479Z,95199.59
2023-05-09T09:34:40.417Z,95196.22
2023-05-09T09:37:09.587Z,95188.34
2023-05-09T09:39:37.321Z,95177.16
2023-05-09T09:42:12.128Z,95169.38
2023-05-09T09:44:39.885Z,95170.59
2023-05-09T09:47:11.461Z,95179.25
2023-05-09T09:49:46.314Z,95167.25
2023-05-09T09:52:24.011Z,95163.03
2023-05-09T09:54:52.126Z,95150.09
2023-05-09T09:57:35.059Z,95143.50
2023-05-09T10:00:06.018Z,95151.50
2023-05-09T10:02:34.020Z,95148.03
2023-05-09T10:05:08.417Z,95145.59
2023-05-09T10:07:37.534Z,95138.69
2023-05-09T10:10:06.860Z,95140.28
2023-05-09T10:12:35.577Z,95135.47
2023-05-09T10:15:05.395Z,95122.78
2023-05-09T10:17:33.581Z,95118.94
2023-05-09T10:20:04.190Z,95125.75
2023-05-09T10:22:34.316Z,95129.16
2023-05-09T10:25:07.336Z,95113.78
2023-05-09T10:27:37.183Z,95115.91
2023-05-09T10:30:10.423Z,95119.28
2023-05-09T10:32:50.732Z,95106.91
2023-05-09T10:35:20.441Z,95101.28
2023-05-09T10:37:49.310Z,95094.50
2023-05-09T10:40:20.485Z,95093.59
2023-05-09T10:42:51.252Z,95093.47
2023-05-09T10:45:21.014Z,95082.00
2023-05-09T10:47:50.693Z,95072.88
2023-05-09T10:50:19.421Z,95073.81
2023-05-09T10:53:06.201Z,95070.78
2023-05-09T10:55:50.773Z,95061.84
2023-05-09T10:58:24.820Z,95062.03
2023-05-09T11:00:55.277Z,95047.03
2023-05-09T11:03:25.861Z,95050.41
2023-05-09T11:05:55.762Z,95039.50
2023-05-09T11:08:26.217Z,95026.84
2023-05-09T11:10:57.142Z,95027.56
2023-05-09T11:13:27.420Z,95028.06
2023-05-09T11:16:12.248Z,95015.13
2023-05-09T11:18:53.734Z,95014.00
2023-05-09T11:21:22.295Z,94999.78
2023-05-09T11:23:52.410Z,95006.16
2023-05-09T11:26:30.485Z,95002.63
2023-05-09T11:29:00.786Z,95004.00
2023-05-09T11:31:28.626Z,94997.13
2023-05-09T11:34:04.815Z,94996.00
2023-05-09T11:36:33.814Z,94994.59
2023-05-09T11:39:05.262Z,94990.78
2023-05-09T11:41:40.609Z,94989.63
2023-05-09T11:44:19.087Z,94979.84
2023-05-09T11:46:47.862Z,94982.47
2023-05-09T11:49:17.031Z,94980.53
2023-05-09T11:51:44.900Z,94978.38
2023-05-09T11:54:14.824Z,94969.00
2023-05-09T11:56:44.163Z,94963.72
2023-05-09T11:59:14.669Z,94971.69
2023-05-09T12:01:42.688Z,94952.28
2023-05-09T12:04:10.613Z,94961.88
2023-05-09T12:06:38.510Z,94950.69
2023-05-09T12:09:06.628Z,94946.13
2023-05-09T12:11:37.027Z,94947.88
2023-05-09T12:14:06.383Z,94948.28
2023-05-09T12:16:34.275Z,94932.59
2023-05-09T12:19:02.212Z,94945.66
2023-05-09T12:21:29.995Z,94934.13
2023-05-09T12:23:58.137Z,94919.97
2023-05-09T12:26:27.073Z,94918.81
2023-05-09T12:28:55.316Z,94923.16
2023-05-09T12:31:24.680Z,94920.25
2023-05-09T12:33:52.808Z,94918.47
2023-05-09T12:36:20.685Z,94908.19
2023-05-09T12:38:55.192Z,94901.69
2023-05-09T12:41:37.022Z,94899.78
2023-05-09T12:44:10.006Z,94906.06
2023-05-09T12:46:39.200Z,94898.78
2023-05-09T12:49:07.223Z,94894.81
2023-05-09T12:51:34.998Z,94895.31
2023-05-09T12:54:05.424Z,94881.75
2023-05-09T12:56:35.811Z,94874.53
2023-05-09T12:59:03.599Z,94868.00
2023-05-09T13:01:31.709Z,94870.59
2023-05-09T13:04:06.198Z,94876.56
2023-05-09T13:06:35.666Z,94869.69
2023-05-09T13:09:06.279Z,94862.13
2023-05-09T13:11:34.354Z,94841.50
2023-05-09T13:14:04.151Z,94848.16
2023-05-09T13:16:32.032Z,94846.41
2023-05-09T13:19:01.509Z,94843.75
2023-05-09T13:21:30.720Z,94835.88
2023-05-09T13:23:58.568Z,94840.16
2023-05-09T13:26:27.241Z,94840.84
2023-05-09T13:28:55.143Z,94823.75
2023-05-09T13:31:23.492Z,94838.81
2023-05-09T13:33:52.121Z,94833.06
2023-05-09T13:36:20.483Z,94832.59
2023-05-09T13:38:49.601Z,94822.31
2023-05-09T13:41:20.785Z,94818.56
2023-05-09T13:43:48.667Z,94809.84
2023-05-09T13:46:16.531Z,94804.00
2023-05-09T13:48:44.556Z,94806.63
2023-05-09T13:51:12.535Z,94797.47
2023-05-09T13:53:40.499Z,94805.69
2023-05-09T13:56:10.293Z,94787.03
2023-05-09T13:58:38.140Z,94793.22
2023-05-09T14:01:06.414Z,94781.94
2023-05-09T14:03:34.448Z,94772.31
2023-05-09T14:06:02.339Z,94776.06
2023-05-09T14:08:30.224Z,94766.00
2023-05-09T14:10:57.979Z,94773.72
2023-05-09T14:13:27.340Z,94781.50
2023-05-09T14:15:55.170Z,94782.44
2023-05-09T14:18:23.208Z,94774.88
2023-05-09T14:20:52.294Z,94768.06
2023-05-09T14:23:22.292Z,94770.09
2023-05-09T14:25:50.319Z,94767.00
2023-05-09T14:28:18.313Z,94759.78
2023-05-09T14:30:47.868Z,94748.13
2023-05-09T14:33:15.977Z,94747.50
2023-05-09T14:35:43.805Z,94747.88
2023-05-09T14:38:13.106Z,94737.25
2023-05-09T14:40:41.084Z,94732.28
2023-05-09T14:43:09.590Z,94733.81
2023-05-09T14:45:37.671Z,94728.69
2023-05-09T14:48:07.066Z,94721.81
2023-05-09T14:50:35.035Z,94717.94
2023-05-09T14:53:03.712Z,94715.38
2023-05-09T14:55:31.676Z,94714.53
2023-05-09T14:57:59.543Z,94712.84
2023-05-09T15:00:28.436Z,94704.75
2023-05-09T15:02:56.819Z,94706.19
2023-05-09T15:05:26.292Z,94715.31
2023-05-09T15:07:54.253Z,94708.88
2023-05-09T15:10:22.191Z,94709.47
2023-05-09T15:12:50.069Z,94707.19
2023-05-09T15:15:20.048Z,94703.34
2023-05-09T15:17:48.451Z,94696.06
2023-05-09T15:20:17.691Z,94697.19
2023-05-09T15:22:48.759Z,94698.50
2023-05-09T15:25:17.433Z,94693.97
2023-05-09T15:27:45.430Z,94684.19
2023-05-09T15:30:14.234Z,94686.66
2023-05-09T15:32:42.259Z,94679.03
2023-05-09T15:35:10.514Z,94685.63
2023-05-09T15:37:38.705Z,94680.25
2023-05-09T15:40:09.389Z,94676.78
2023-05-09T15:42:38.635Z,94677.91
2023-05-09T15:45:07.333Z,94673.50
2023-05-09T15:47:35.276Z,94671.53
2023-05-09T15:50:03.258Z,94675.06
2023-05-09T15:52:31.203Z,94667.56
2023-05-09T15:54:59.614Z,94661.16
2023-05-09T15:57:28.879Z,94658.66
2023-05-09T15:59:56.771Z,94663.69
2023-05-09T16:02:24.767Z,94653.94
2023-05-09T16:04:52.744Z,94655.84
2023-05-09T16:07:20.973Z,94651.44
2023-05-09T16:09:48.792Z,94621.47
2023-05-09T16:12:16.621Z,94642.34
2023-05-09T16:14:45.756Z,94645.47
2023-05-09T16:17:13.513Z,94641.41
2023-05-09T16:19:41.307Z,94638.47
2023-05-09T16:22:09.088Z,94630.91
2023-05-09T16:24:37.358Z,94625.63
2023-05-09T16:27:05.134Z,94627.16
2023-05-09T16:29:32.888Z,94626.16
2023-05-09T16:32:02.220Z,94618.63
2023-05-09T16:34:30.278Z,94608.06
2023-05-09T16:36:58.133Z,94607.56
2023-05-09T16:39:27.904Z,94602.66
2023-05-09T16:41:56.295Z,94603.22
2023-05-09T16:44:25.132Z,94586.25
2023-05-09T16:46:53.156Z,94597.06
2023-05-09T16:49:22.295Z,94596.84
2023-05-09T16:51:50.091Z,94596.91
2023-05-09T16:54:17.820Z,94596.78
2023-05-09T16:56:45.581Z,94586.06
2023-05-09T16:59:13.365Z,94584.25
2023-05-09T17:01:41.899Z,94585.97
2023-05-09T17:04:09.907Z,94581.06
2023-05-09T17:06:39.110Z,94576.97
2023-05-09T17:09:07.024Z,94580.41
2023-05-09T17:11:34.838Z,94578.97
2023-05-09T17:14:03.307Z,94587.38
2023-05-09T17:16:31.137Z,94580.47
2023-05-09T17:18:59.261Z,94579.25
2023-05-09T17:21:27.732Z,94565.75
2023-05-09T17:23:56.936Z,94579.09
2023-05-09T17:26:25.848Z,94568.94
2023-05-09T17:28:53.728Z,94569.25
2023-05-09T17:31:21.598Z,94565.16
2023-05-09T17:33:49.512Z,94566.44
2023-05-09T17:36:17.334Z,94551.09
2023-05-09T17:38:45.125Z,94555.31
2023-05-09T17:41:14.342Z,94549.84
2023-05-09T17:43:42.141Z,94544.91
2023-05-09T17:46:10.469Z,94551.22
2023-05-09T17:48:38.737Z,94544.19
2023-05-09T17:51:07.083Z,94536.13
2023-05-09T17:53:34.890Z,94537.16
2023-05-09T17:56:02.958Z,94542.63
2023-05-09T17:58:32.122Z,94535.13
2023-05-09T18:00:59.937Z,94532.53
2023-05-09T18:03:28.647Z,94526.56
2023-05-09T18:05:57.131Z,94527.34
2023-05-09T18:08:25.024Z,94535.13
2023-05-09T18:10:54.506Z,94519.25
2023-05-09T18:13:22.514Z,94521.09
2023-05-09T18:15:53.969Z,94521.84
2023-05-09T18:18:22.284Z,94519.03
2023-05-09T18:20:50.253Z,94516.13
2023-05-09T18:23:18.076Z,94510.72
2023-05-09T18:25:45.874Z,94514.59
2023-05-09T18:28:13.630Z,94516.38
2023-05-09T18:30:41.473Z,94509.13
2023-05-09T18:33:10.629Z,94505.47
2023-05-09T18:35:38.400Z,94507.53
2023-05-09T18:38:06.261Z,94496.91
2023-05-09T18:40:34.031Z,94501.81
2023-05-09T18:43:01.832Z,94503.91
2023-05-09T18:45:30.787Z,94509.06
2023-05-09T18:47:58.694Z,94502.53
2023-05-09T18:50:27.863Z,94503.28
2023-05-09T18:52:55.950Z,94504.84
2023-05-09T18:55:24.066Z,94508.28
2023-05-09T18:57:51.953Z,94513.50
2023-05-09T19:00:19.864Z,94510.56
2023-05-09T19:02:47.629Z,94514.69
2023-05-09T19:05:15.781Z,94515.72
2023-05-09T19:07:44.947Z,94507.41
2023-05-09T19:10:13.168Z,94502.19
2023-05-09T19:12:41.607Z,94503.47
2023-05-09T19:15:10.880Z,94506.03
2023-05-09T19:17:38.966Z,94509.91
2023-05-09T19:20:08.374Z,94510.41
2023-05-09T19:22:36.257Z,94517.44
2023-05-09T19:25:05.937Z,94512.25
2023-05-09T19:27:33.825Z,94519.00
2023-05-09T19:30:01.869Z,94517.97
2023-05-09T19:32:30.340Z,94519.19
2023-05-09T19:34:58.689Z,94524.41
2023-05-09T19:37:26.587Z,94517.59
2023-05-09T19:39:54.360Z,94516.34
2023-05-09T19:42:23.479Z,94521.50
2023-05-09T19:44:52.377Z,94518.13
2023-05-09T19:47:20.255Z,94522.06
2023-05-09T19:49:48.024Z,94522.56
2023-05-09T19:52:15.761Z,94530.25
2023-05-09T19:54:43.542Z,94518.38
2023-05-09T19:57:12.376Z,94525.06
2023-05-09T19:59:41.495Z,94527.41
2023-05-09T20:02:09.670Z,94519.91
2023-05-09T20:04:37.829Z,94525.84
2023-05-09T20:07:05.921Z,94527.13
2023-05-09T20:09:33.669Z,94526.63
2023-05-09T20:12:03.450Z,94532.28
2023-05-09T20:14:31.748Z,94520.75
2023-05-09T20:17:00.870Z,94540.78
2023-05-09T20:19:28.813Z,94533.09
2023-05-09T20:21:56.692Z,94536.75
2023-05-09T20:24:24.463Z,94538.28
2023-05-09T20:26:52.266Z,94535.00
2023-05-09T20:29:20.154Z,94534.88
2023-05-09T20:31:48.297Z,94550.88
2023-05-09T20:34:19.574Z,94569.94
2023-05-09T20:36:50.753Z,94613.75
2023-05-09T20:39:18.713Z,94628.44
2023-05-09T20:41:46.770Z,94633.16
2023-05-09T20:44:15.785Z,94621.53
2023-05-09T20:46:43.541Z,94626.66
2023-05-09T20:49:11.547Z,94638.56
2023-05-09T20:51:40.790Z,94630.50
2023-05-09T20:54:08.562Z,94632.00
2023-05-09T20:56:36.373Z,94641.28
2023-05-09T20:59:04.635Z,94625.38
2023-05-09T21:01:35.598Z,94619.03
2023-05-09T21:04:03.997Z,94608.94
2023-05-09T21:06:31.854Z,94598.47
2023-05-09T21:09:00.945Z,94601.22
2023-05-09T21:11:28.773Z,94597.47
2023-05-09T21:13:56.516Z,94604.03
2023-05-09T21:16:24.274Z,94585.25
2023-05-09T21:18:52.054Z,94567.81
2023-05-09T21:21:19.809Z,94556.84
2023-05-09T21:23:47.617Z,94557.44
2023-05-09T21:26:17.158Z,94556.66
2023-05-09T21:28:44.919Z,94552.84
2023-05-09T21:31:12.715Z,94537.22
2023-05-09T21:33:40.651Z,94553.53
2023-05-09T21:36:09.129Z,94549.84
2023-05-09T21:38:36.896Z,94551.88
2023-05-09T21:41:04.715Z,94553.09
2023-05-09T21:43:33.867Z,94560.13
2023-05-09T21:46:01.676Z,94560.25
2023-05-09T21:48:29.593Z,94558.34
2023-05-09T21:50:57.367Z,94567.53
2023-05-09T21:53:25.411Z,94565.06
2023-05-09T21:55:53.210Z,94576.84
2023-05-09T21:58:21.008Z,94570.13
2023-05-09T22:00:50.127Z,94573.91
2023-05-09T22:03:17.974Z,94579.31
2023-05-09T22:05:46.065Z,94568.78
2023-05-09T22:08:13.872Z,94576.81
2023-05-09T22:10:41.902Z,94570.22
2023-05-09T22:13:09.769Z,94575.06
2023-05-09T22:15:37.697Z,94575.03
2023-05-09T22:18:07.095Z,94576.16
2023-05-09T22:20:34.950Z,94581.31
2023-05-09T22:23:03.172Z,94576.72
2023-05-09T22:25:31.124Z,94580.84
2023-05-09T22:27:59.088Z,94584.44
2023-05-09T22:30:27.111Z,94576.50
2023-05-09T22:32:54.958Z,94573.56
2023-05-09T22:35:24.461Z,94570.56
2023-05-09T22:37:52.381Z,94576.84
2023-05-09T22:40:20.263Z,94573.91
2023-05-09T22:42:48.143Z,94573.69
2023-05-09T22:45:15.954Z,94566.63
2023-05-09T22:47:44.527Z,94564.16
2023-05-09T22:50:12.940Z,94565.50
2023-05-09T22:52:42.206Z,94554.44
2023-05-09T22:55:10.355Z,94556.56
2023-05-09T22:57:38.124Z,94559.81
2023-05-09T23:00:07.251Z,94559.59
2023-05-09T23:02:35.124Z,94556.78
2023-05-09T23:05:03.297Z,94561.03
2023-05-09T23:07:31.212Z,94554.13
2023-05-09T23:10:00.525Z,94548.03
2023-05-09T23:12:28.292Z,94555.34
2023-05-09T23:14:56.076Z,94559.47
2023-05-09T23:17:24.389Z,94553.53
2023-05-09T23:19:52.232Z,94560.38
2023-05-09T23:22:20.065Z,94547.53
2023-05-09T23:24:48.050Z,94547.97
2023-05-09T23:27:17.146Z,94546.59
2023-05-09T23:29:44.897Z,94543.81
2023-05-09T23:32:12.622Z,94548.16
2023-05-09T23:34:40.382Z,94543.81
2023-05-09T23:37:08.384Z,94544.81
2023-05-09T23:39:36.209Z,94544.69
2023-05-09T23:42:04.066Z,94549.31
2023-05-09T23:44:33.183Z,94539.53
2023-05-09T23:47:01.847Z,94545.25
2023-05-09T23:49:30.158Z,94546.19
2023-05-09T23:51:57.954Z,94539.31
2023-05-09T23:54:26.895Z,94544.16
2023-05-09T23:56:56.319Z,94542.81
2023-05-09T23:59:24.127Z,94536.97
